createdAt,value
2019-03-28T00:02:27.778Z,51.36
2019-03-28T00:05:01.762Z,48.81
2019-03-28T00:07:36.057Z,52.00
2019-03-28T00:10:10.256Z,54.69
2019-03-28T00:12:44.445Z,56.54
2019-03-28T00:15:18.393Z,58.16
2019-03-28T00:17:52.383Z,59.78
2019-03-28T00:20:26.362Z,61.03
2019-03-28T00:23:25.012Z,62.35
2019-03-28T00:25:58.993Z,60.29
2019-03-28T00:28:32.942Z,53.73
2019-03-28T00:31:06.965Z,55.35
2019-03-28T00:33:40.957Z,57.61
2019-03-28T00:36:15.086Z,59.21
2019-03-28T00:38:49.056Z,60.71
2019-03-28T00:41:24.640Z,61.75
2019-03-28T00:43:58.704Z,61.81
2019-03-28T00:46:32.702Z,52.19
2019-03-28T00:49:06.589Z,49.32
2019-03-28T00:51:42.990Z,52.21
2019-03-28T00:54:16.177Z,54.70
2019-03-28T00:56:50.170Z,56.74
2019-03-28T00:59:24.337Z,58.42
2019-03-28T01:01:59.368Z,59.85
2019-03-28T01:04:33.357Z,61.20
2019-03-28T01:07:07.341Z,62.52
2019-03-28T01:09:41.307Z,62.15
2019-03-28T01:12:15.301Z,52.49
2019-03-28T01:14:49.283Z,49.87
2019-03-28T01:17:23.373Z,52.55
2019-03-28T01:19:57.457Z,55.16
2019-03-28T01:22:31.437Z,57.07
2019-03-28T01:25:05.843Z,58.61
2019-03-28T01:27:40.806Z,60.13
2019-03-28T01:30:14.803Z,61.14
2019-03-28T01:32:48.808Z,62.48
2019-03-28T01:35:23.224Z,62.15
2019-03-28T01:37:57.302Z,51.99
2019-03-28T01:40:32.266Z,49.00
2019-03-28T01:43:06.255Z,51.98
2019-03-28T01:45:40.359Z,54.57
2019-03-28T01:48:14.340Z,56.75
2019-03-28T01:50:48.322Z,58.30
2019-03-28T01:53:22.424Z,59.76
2019-03-28T01:55:56.924Z,61.00
2019-03-28T01:58:31.061Z,62.06
2019-03-28T02:01:05.037Z,62.27
2019-03-28T02:03:40.002Z,52.38
2019-03-28T02:06:14.001Z,49.32
2019-03-28T02:08:48.099Z,52.35
2019-03-28T02:11:22.082Z,54.77
2019-03-28T02:13:57.054Z,56.71
2019-03-28T02:16:31.046Z,58.49
2019-03-28T02:19:05.023Z,60.00
2019-03-28T02:21:39.024Z,61.27
2019-03-28T02:24:13.054Z,62.72
2019-03-28T02:26:47.011Z,62.29
2019-03-28T02:29:21.067Z,51.49
2019-03-28T02:31:55.027Z,49.11
2019-03-28T02:34:29.006Z,52.17
2019-03-28T02:37:02.993Z,54.62
2019-03-28T02:39:36.991Z,56.73
2019-03-28T02:42:10.992Z,58.42
2019-03-28T02:44:46.102Z,60.14
2019-03-28T02:47:20.110Z,61.23
2019-03-28T02:49:54.143Z,62.48
2019-03-28T02:52:28.158Z,62.40
2019-03-28T02:55:02.121Z,51.95
2019-03-28T02:57:41.628Z,49.25
2019-03-28T03:00:13.265Z,52.37
2019-03-28T03:02:47.245Z,55.11
2019-03-28T03:05:21.244Z,56.89
2019-03-28T03:07:55.278Z,58.75
2019-03-28T03:10:29.281Z,60.20
2019-03-28T03:13:03.251Z,61.51
2019-03-28T03:15:37.501Z,62.99
2019-03-28T03:18:11.515Z,62.43
2019-03-28T03:20:45.603Z,52.39
2019-03-28T03:23:20.104Z,49.44
2019-03-28T03:25:55.428Z,52.60
2019-03-28T03:28:30.887Z,55.19
2019-03-28T03:31:05.283Z,57.51
2019-03-28T03:33:39.358Z,59.08
2019-03-28T03:36:13.424Z,60.42
2019-03-28T03:38:48.111Z,61.74
2019-03-28T03:41:22.242Z,61.49
2019-03-28T03:43:56.412Z,51.87
2019-03-28T03:46:30.553Z,49.29
2019-03-28T03:49:04.876Z,52.48
2019-03-28T03:51:39.153Z,55.11
2019-03-28T03:54:13.202Z,57.13
2019-03-28T03:56:47.280Z,58.69
2019-03-28T03:59:21.255Z,60.21
2019-03-28T04:01:55.299Z,61.58
2019-03-28T04:04:29.425Z,62.70
2019-03-28T04:07:03.569Z,62.24
2019-03-28T04:09:37.587Z,52.62
2019-03-28T04:12:11.764Z,49.83
2019-03-28T04:14:45.798Z,52.79
2019-03-28T04:17:22.082Z,55.48
2019-03-28T04:19:56.122Z,57.67
2019-03-28T04:22:30.142Z,59.16
2019-03-28T04:25:04.167Z,60.38
2019-03-28T04:27:38.308Z,61.83
2019-03-28T04:30:12.444Z,61.92
2019-03-28T04:32:46.851Z,51.81
2019-03-28T04:35:21.183Z,48.62
2019-03-28T04:37:55.200Z,51.75
2019-03-28T04:40:29.191Z,54.42
2019-03-28T04:43:03.236Z,56.53
2019-03-28T04:45:37.296Z,58.23
2019-03-28T04:48:11.321Z,59.71
2019-03-28T04:50:46.458Z,61.02
2019-03-28T04:53:20.589Z,62.13
2019-03-28T04:55:54.814Z,62.15
2019-03-28T04:58:28.844Z,52.11
2019-03-28T05:01:02.929Z,49.73
2019-03-28T05:03:36.956Z,52.47
2019-03-28T05:06:11.057Z,55.07
2019-03-28T05:08:45.051Z,56.99
2019-03-28T05:11:19.597Z,58.79
2019-03-28T05:13:53.641Z,60.01
2019-03-28T05:16:27.759Z,61.58
2019-03-28T05:19:01.814Z,62.93
2019-03-28T05:21:35.859Z,62.49
2019-03-28T05:24:10.015Z,52.29
2019-03-28T05:26:44.068Z,49.45
2019-03-28T05:29:18.099Z,52.59
2019-03-28T05:31:52.167Z,55.24
2019-03-28T05:34:26.231Z,57.20
2019-03-28T05:37:00.250Z,58.88
2019-03-28T05:39:34.320Z,60.21
2019-03-28T05:42:08.602Z,61.48
2019-03-28T05:44:42.733Z,62.92
2019-03-28T05:47:17.422Z,62.19
2019-03-28T05:49:51.838Z,51.19
2019-03-28T05:52:25.890Z,48.64
2019-03-28T05:55:00.003Z,51.83
2019-03-28T05:57:34.007Z,54.56
2019-03-28T06:00:09.154Z,56.62
2019-03-28T06:02:43.139Z,58.47
2019-03-28T06:05:18.438Z,59.87
2019-03-28T06:07:53.145Z,61.03
2019-03-28T06:10:27.216Z,62.44
2019-03-28T06:13:01.259Z,61.74
2019-03-28T06:15:36.355Z,51.74
2019-03-28T06:18:10.411Z,48.60
2019-03-28T06:20:44.471Z,52.05
2019-03-28T06:23:18.551Z,54.55
2019-03-28T06:25:52.594Z,56.84
2019-03-28T06:28:26.650Z,58.38
2019-03-28T06:31:00.867Z,59.74
2019-03-28T06:33:34.867Z,61.07
2019-03-28T06:36:08.908Z,62.25
2019-03-28T06:38:44.117Z,61.38
2019-03-28T06:41:18.188Z,50.97
2019-03-28T06:43:52.414Z,51.05
2019-03-28T06:46:26.858Z,53.68
2019-03-28T06:49:00.944Z,56.22
2019-03-28T06:51:34.938Z,57.89
2019-03-28T06:54:09.107Z,59.28
2019-03-28T06:56:43.516Z,60.49
2019-03-28T06:59:17.739Z,61.88
2019-03-28T07:01:52.095Z,61.51
2019-03-28T07:04:26.627Z,50.77
2019-03-28T07:07:01.776Z,48.91
2019-03-28T07:09:35.855Z,51.80
2019-03-28T07:12:09.907Z,54.57
2019-03-28T07:14:44.017Z,56.35
2019-03-28T07:17:18.033Z,58.12
2019-03-28T07:19:52.039Z,59.43
2019-03-28T07:22:27.150Z,60.78
2019-03-28T07:25:01.151Z,61.64
2019-03-28T07:27:35.222Z,62.93
2019-03-28T07:30:10.564Z,62.00
2019-03-28T07:32:44.811Z,50.55
2019-03-28T07:35:18.913Z,50.74
2019-03-28T07:37:53.111Z,52.92
2019-03-28T07:40:27.887Z,55.79
2019-03-28T07:43:02.966Z,57.33
2019-03-28T07:45:37.176Z,58.91
2019-03-28T07:48:11.575Z,60.85
2019-03-28T07:50:46.039Z,61.94
2019-03-28T07:53:20.948Z,62.66
2019-03-28T07:55:59.173Z,61.06
2019-03-28T07:58:36.028Z,50.61
2019-03-28T08:01:10.145Z,51.14
2019-03-28T08:03:44.356Z,53.51
2019-03-28T08:06:18.455Z,55.37
2019-03-28T08:08:52.687Z,57.15
2019-03-28T08:11:27.058Z,58.69
2019-03-28T08:14:01.439Z,59.69
2019-03-28T08:16:35.611Z,60.66
2019-03-28T08:19:09.699Z,61.00
2019-03-28T08:21:44.079Z,62.46
2019-03-28T08:24:18.305Z,60.00
2019-03-28T08:26:52.503Z,53.00
2019-03-28T08:29:26.821Z,53.74
2019-03-28T08:32:01.243Z,54.76
2019-03-28T08:34:35.601Z,56.57
2019-03-28T08:37:09.815Z,58.13
2019-03-28T08:39:44.767Z,59.05
2019-03-28T08:42:19.587Z,58.75
2019-03-28T08:44:53.883Z,58.59
2019-03-28T08:47:27.911Z,59.55
2019-03-28T08:50:02.236Z,60.17
2019-03-28T08:52:36.331Z,61.55
2019-03-28T08:55:10.945Z,61.58
2019-03-28T08:57:45.019Z,62.59
2019-03-28T09:00:32.358Z,59.42
2019-03-28T09:02:55.365Z,51.41
2019-03-28T09:05:30.857Z,51.82
2019-03-28T09:08:05.028Z,54.07
2019-03-28T09:10:39.055Z,55.35
2019-03-28T09:13:13.087Z,55.92
2019-03-28T09:15:47.249Z,56.74
2019-03-28T09:18:21.347Z,56.60
2019-03-28T09:20:55.544Z,58.07
2019-03-28T09:23:29.682Z,57.50
2019-03-28T09:26:04.483Z,59.06
2019-03-28T09:28:40.589Z,59.61
2019-03-28T09:31:20.026Z,60.27
2019-03-28T09:33:50.215Z,57.81
2019-03-28T09:36:24.482Z,57.79
2019-03-28T09:38:58.738Z,57.42
2019-03-28T09:41:32.828Z,57.42
2019-03-28T09:44:06.903Z,56.87
2019-03-28T09:46:40.882Z,56.51
2019-03-28T09:49:15.136Z,58.82
2019-03-28T09:51:49.318Z,57.39
2019-03-28T09:54:24.588Z,57.09
2019-03-28T09:56:58.709Z,57.05
2019-03-28T09:59:32.826Z,57.99
2019-03-28T10:02:06.930Z,57.59
2019-03-28T10:04:42.020Z,57.60
2019-03-28T10:07:16.619Z,57.28
2019-03-28T10:09:50.778Z,56.58
2019-03-28T10:12:24.789Z,55.86
2019-03-28T10:14:58.929Z,56.35
2019-03-28T10:17:32.949Z,55.77
2019-03-28T10:20:07.660Z,56.33
2019-03-28T10:22:42.088Z,55.84
2019-03-28T10:25:16.166Z,55.74
2019-03-28T10:27:50.719Z,57.00
2019-03-28T10:30:42.845Z,56.67
2019-03-28T10:33:16.938Z,56.73
2019-03-28T10:35:51.448Z,57.50
2019-03-28T10:38:25.901Z,56.30
2019-03-28T10:40:59.865Z,54.83
2019-03-28T10:43:34.268Z,53.22
2019-03-28T10:46:08.283Z,52.98
2019-03-28T10:48:42.402Z,53.18
2019-03-28T10:51:16.393Z,54.28
2019-03-28T10:53:50.499Z,54.81
2019-03-28T10:56:24.734Z,58.61
2019-03-28T10:58:58.879Z,57.66
2019-03-28T11:01:48.160Z,58.21
2019-03-28T11:04:08.748Z,55.57
2019-03-28T11:06:42.741Z,56.33
2019-03-28T11:09:16.907Z,54.73
2019-03-28T11:11:50.897Z,55.05
2019-03-28T11:14:24.884Z,55.63
2019-03-28T11:16:58.920Z,56.99
2019-03-28T11:19:32.933Z,57.48
2019-03-28T11:22:07.331Z,57.47
2019-03-28T11:24:41.774Z,57.43
2019-03-28T11:27:15.913Z,56.03
2019-03-28T11:29:50.100Z,56.84
2019-03-28T11:32:24.212Z,56.95
2019-03-28T11:34:58.304Z,57.89
2019-03-28T11:37:32.748Z,57.32
2019-03-28T11:40:09.552Z,57.18
2019-03-28T11:42:44.342Z,56.55
2019-03-28T11:45:18.758Z,56.26
2019-03-28T11:47:52.957Z,56.46
2019-03-28T11:50:26.993Z,57.18
2019-03-28T11:53:01.130Z,56.71
2019-03-28T11:55:35.254Z,56.33
2019-03-28T11:58:09.768Z,55.30
2019-03-28T12:00:43.828Z,56.49
2019-03-28T12:03:17.959Z,55.70
2019-03-28T12:05:53.226Z,55.97
2019-03-28T12:08:27.812Z,54.92
2019-03-28T12:11:01.838Z,55.72
2019-03-28T12:13:44.565Z,54.94
2019-03-28T12:16:11.551Z,54.89
2019-03-28T12:18:45.892Z,54.05
2019-03-28T12:21:20.093Z,54.49
2019-03-28T12:23:55.202Z,53.89
2019-03-28T12:26:30.295Z,53.30
2019-03-28T12:29:05.883Z,54.45
2019-03-28T12:31:40.274Z,53.85
2019-03-28T12:34:15.350Z,53.82
2019-03-28T12:36:49.599Z,53.66
2019-03-28T12:39:23.761Z,54.32
2019-03-28T12:41:57.898Z,53.70
2019-03-28T12:44:32.086Z,54.19
2019-03-28T12:47:06.133Z,54.02
2019-03-28T12:49:41.341Z,53.98
2019-03-28T12:52:19.210Z,52.87
2019-03-28T12:54:56.591Z,51.91
2019-03-28T12:57:31.006Z,52.92
2019-03-28T13:00:06.836Z,52.21
2019-03-28T13:02:44.793Z,51.99
2019-03-28T13:05:20.255Z,52.28
2019-03-28T13:07:54.275Z,53.08
2019-03-28T13:10:28.486Z,53.75
2019-03-28T13:13:02.492Z,54.47
2019-03-28T13:15:37.012Z,55.42
2019-03-28T13:18:20.092Z,54.99
2019-03-28T13:20:54.493Z,55.67
2019-03-28T13:23:28.748Z,55.88
2019-03-28T13:26:04.813Z,55.55
2019-03-28T13:28:38.924Z,55.43
2019-03-28T13:31:13.076Z,54.98
2019-03-28T13:33:48.197Z,54.58
2019-03-28T13:36:22.412Z,54.57
2019-03-28T13:38:56.584Z,54.58
2019-03-28T13:41:30.787Z,54.46
2019-03-28T13:44:04.831Z,54.54
2019-03-28T13:46:39.474Z,53.25
2019-03-28T13:49:13.644Z,54.07
2019-03-28T13:51:47.985Z,53.37
2019-03-28T13:54:23.422Z,53.54
2019-03-28T13:56:58.544Z,53.78
2019-03-28T13:59:35.360Z,53.73
2019-03-28T14:02:08.934Z,53.24
2019-03-28T14:04:43.147Z,52.74
2019-03-28T14:07:17.665Z,53.77
2019-03-28T14:09:51.930Z,53.30
2019-03-28T14:12:25.951Z,53.42
2019-03-28T14:15:00.254Z,53.87
2019-03-28T14:17:35.126Z,53.24
2019-03-28T14:20:09.936Z,53.15
2019-03-28T14:22:44.079Z,53.16
2019-03-28T14:25:18.960Z,53.03
2019-03-28T14:27:52.988Z,53.25
2019-03-28T14:30:27.403Z,52.73
2019-03-28T14:33:11.185Z,53.23
2019-03-28T14:35:37.120Z,53.85
2019-03-28T14:38:11.951Z,53.60
2019-03-28T14:40:45.917Z,53.63
2019-03-28T14:43:19.949Z,53.50
2019-03-28T14:45:53.986Z,53.91
2019-03-28T14:48:28.012Z,54.01
2019-03-28T14:51:02.260Z,54.42
2019-03-28T14:53:36.298Z,54.68
2019-03-28T14:56:10.523Z,54.71
2019-03-28T14:58:44.812Z,54.84
2019-03-28T15:01:18.810Z,54.49
2019-03-28T15:03:52.801Z,54.71
2019-03-28T15:06:26.862Z,54.99
2019-03-28T15:09:00.886Z,55.20
2019-03-28T15:11:36.836Z,55.41
2019-03-28T15:14:10.829Z,54.95
2019-03-28T15:16:45.161Z,54.64
2019-03-28T15:19:19.214Z,54.85
2019-03-28T15:21:53.311Z,54.97
2019-03-28T15:24:27.440Z,55.38
2019-03-28T15:27:01.584Z,55.31
2019-03-28T15:29:35.591Z,55.16
2019-03-28T15:32:09.652Z,55.36
2019-03-28T15:34:43.735Z,55.30
2019-03-28T15:37:17.767Z,55.14
2019-03-28T15:39:51.844Z,55.11
2019-03-28T15:42:27.990Z,55.16
2019-03-28T15:45:01.653Z,55.31
2019-03-28T15:47:36.230Z,54.94
2019-03-28T15:50:10.443Z,55.11
2019-03-28T15:52:45.016Z,55.12
2019-03-28T15:55:19.069Z,54.88
2019-03-28T15:57:53.562Z,54.78
2019-03-28T16:00:29.290Z,55.13
2019-03-28T16:03:03.554Z,55.02
2019-03-28T16:05:37.769Z,54.59
2019-03-28T16:08:11.830Z,54.56
2019-03-28T16:11:09.108Z,54.60
2019-03-28T16:13:43.111Z,55.01
2019-03-28T16:16:17.384Z,54.70
2019-03-28T16:18:51.886Z,54.86
2019-03-28T16:21:26.838Z,54.80
2019-03-28T16:24:01.223Z,54.59
2019-03-28T16:26:35.258Z,54.66
2019-03-28T16:29:09.429Z,55.01
2019-03-28T16:31:43.620Z,55.17
2019-03-28T16:34:17.591Z,55.12
2019-03-28T16:36:52.727Z,55.03
2019-03-28T16:39:28.199Z,54.99
2019-03-28T16:42:02.208Z,55.06
2019-03-28T16:44:36.201Z,54.70
2019-03-28T16:47:10.813Z,54.72
2019-03-28T16:49:45.048Z,55.44
2019-03-28T16:52:19.259Z,55.63
2019-03-28T16:54:53.675Z,55.67
2019-03-28T16:57:27.703Z,55.61
2019-03-28T17:00:01.823Z,55.84
2019-03-28T17:02:35.969Z,55.65
2019-03-28T17:05:10.010Z,55.30
2019-03-28T17:07:44.080Z,55.16
2019-03-28T17:10:44.701Z,55.39
2019-03-28T17:13:18.868Z,55.69
2019-03-28T17:15:52.986Z,56.02
2019-03-28T17:18:27.061Z,56.56
2019-03-28T17:21:01.137Z,57.07
2019-03-28T17:23:35.257Z,57.52
2019-03-28T17:26:09.437Z,57.73
2019-03-28T17:28:43.551Z,58.58
2019-03-28T17:31:18.885Z,58.75
2019-03-28T17:33:53.388Z,58.96
2019-03-28T17:36:27.469Z,59.38
2019-03-28T17:39:01.501Z,59.45
2019-03-28T17:41:35.793Z,59.33
2019-03-28T17:44:09.996Z,59.42
2019-03-28T17:46:44.803Z,57.54
2019-03-28T17:49:19.368Z,56.65
2019-03-28T17:51:53.393Z,56.38
2019-03-28T17:54:27.519Z,56.57
2019-03-28T17:57:01.827Z,56.98
2019-03-28T17:59:35.961Z,57.11
2019-03-28T18:02:10.570Z,57.71
2019-03-28T18:04:48.113Z,58.35
2019-03-28T18:07:20.599Z,58.62
2019-03-28T18:09:55.029Z,59.12
2019-03-28T18:12:29.129Z,59.26
2019-03-28T18:15:03.713Z,59.69
2019-03-28T18:17:37.858Z,59.61
2019-03-28T18:20:12.180Z,59.51
2019-03-28T18:22:46.224Z,59.71
2019-03-28T18:25:20.252Z,59.63
2019-03-28T18:27:54.416Z,59.45
2019-03-28T18:30:28.736Z,59.30
2019-03-28T18:33:04.101Z,58.79
2019-03-28T18:35:39.196Z,57.87
2019-03-28T18:38:13.310Z,56.17
2019-03-28T18:40:47.511Z,55.81
2019-03-28T18:43:21.643Z,56.18
2019-03-28T18:45:57.815Z,56.66
2019-03-28T18:48:36.752Z,57.29
2019-03-28T18:51:10.902Z,58.22
2019-03-28T18:53:44.953Z,58.79
2019-03-28T18:56:19.032Z,59.34
2019-03-28T18:58:53.060Z,59.81
2019-03-28T19:01:27.124Z,60.13
2019-03-28T19:04:01.221Z,59.90
2019-03-28T19:06:36.546Z,60.15
2019-03-28T19:09:10.647Z,59.75
2019-03-28T19:11:44.803Z,59.02
2019-03-28T19:14:23.501Z,59.17
2019-03-28T19:16:57.569Z,59.37
2019-03-28T19:19:39.205Z,59.65
2019-03-28T19:22:07.431Z,59.83
2019-03-28T19:24:42.125Z,60.06
2019-03-28T19:27:16.992Z,60.23
2019-03-28T19:29:50.987Z,60.63
2019-03-28T19:32:25.159Z,61.30
2019-03-28T19:35:02.749Z,61.75
2019-03-28T19:37:34.881Z,62.04
2019-03-28T19:40:09.828Z,62.21
2019-03-28T19:42:44.309Z,62.56
2019-03-28T19:45:35.826Z,61.99
2019-03-28T19:48:09.790Z,49.94
2019-03-28T19:50:43.843Z,45.43
2019-03-28T19:53:18.208Z,47.61
2019-03-28T19:55:52.522Z,49.75
2019-03-28T19:58:26.530Z,50.80
2019-03-28T20:01:00.617Z,51.50
2019-03-28T20:03:34.964Z,52.61
2019-03-28T20:06:21.519Z,53.46
2019-03-28T20:08:45.120Z,54.18
2019-03-28T20:11:20.105Z,55.00
2019-03-28T20:13:54.296Z,55.73
2019-03-28T20:16:28.313Z,56.26
2019-03-28T20:19:02.553Z,56.53
2019-03-28T20:21:36.596Z,57.12
2019-03-28T20:24:10.630Z,58.53
2019-03-28T20:26:44.635Z,57.70
2019-03-28T20:29:18.675Z,60.30
2019-03-28T20:31:53.318Z,60.41
2019-03-28T20:34:35.134Z,60.28
2019-03-28T20:37:09.168Z,60.38
2019-03-28T20:39:43.292Z,60.66
2019-03-28T20:42:22.344Z,60.89
2019-03-28T20:44:57.107Z,60.93
2019-03-28T20:47:32.054Z,61.25
2019-03-28T20:50:11.305Z,61.91
2019-03-28T20:52:46.682Z,62.25
2019-03-28T20:55:20.865Z,62.56
2019-03-28T20:57:55.135Z,51.06
2019-03-28T21:00:48.673Z,46.49
2019-03-28T21:03:22.888Z,48.93
2019-03-28T21:05:57.186Z,51.06
2019-03-28T21:08:32.168Z,52.90
2019-03-28T21:11:06.439Z,54.25
2019-03-28T21:13:40.554Z,55.33
2019-03-28T21:16:14.580Z,56.48
2019-03-28T21:18:49.323Z,57.32
2019-03-28T21:21:27.009Z,57.87
2019-03-28T21:24:05.690Z,58.36
2019-03-28T21:26:41.068Z,58.99
2019-03-28T21:29:16.812Z,59.64
2019-03-28T21:31:52.554Z,60.35
2019-03-28T21:34:27.104Z,61.24
2019-03-28T21:37:01.278Z,61.57
2019-03-28T21:39:39.872Z,61.82
2019-03-28T21:42:29.879Z,62.11
2019-03-28T21:45:04.397Z,62.14
2019-03-28T21:47:39.994Z,51.11
2019-03-28T21:50:14.558Z,46.84
2019-03-28T21:52:53.479Z,49.42
2019-03-28T21:55:28.961Z,51.83
2019-03-28T21:58:03.079Z,53.50
2019-03-28T22:00:37.563Z,54.94
2019-03-28T22:03:16.872Z,56.25
2019-03-28T22:05:51.636Z,57.23
2019-03-28T22:08:26.383Z,58.04
2019-03-28T22:11:00.428Z,58.96
2019-03-28T22:13:35.402Z,60.03
2019-03-28T22:16:09.592Z,60.66
2019-03-28T22:18:43.690Z,61.75
2019-03-28T22:21:17.811Z,62.57
2019-03-28T22:23:51.933Z,62.53
2019-03-28T22:26:26.105Z,51.37
2019-03-28T22:29:01.264Z,47.77
2019-03-28T22:31:35.416Z,50.40
2019-03-28T22:34:19.049Z,52.64
2019-03-28T22:36:57.474Z,54.25
2019-03-28T22:39:30.922Z,55.75
2019-03-28T22:42:04.999Z,57.43
2019-03-28T22:44:39.038Z,58.91
2019-03-28T22:47:13.548Z,59.84
2019-03-28T22:49:47.602Z,60.80
2019-03-28T22:52:21.638Z,61.76
2019-03-28T22:54:55.793Z,62.03
2019-03-28T22:57:29.933Z,51.40
2019-03-28T23:00:04.342Z,48.02
2019-03-28T23:02:39.122Z,50.72
2019-03-28T23:05:14.234Z,53.04
2019-03-28T23:07:48.254Z,54.96
2019-03-28T23:10:22.353Z,56.53
2019-03-28T23:12:56.352Z,57.87
2019-03-28T23:15:30.580Z,59.16
2019-03-28T23:18:05.549Z,60.14
2019-03-28T23:20:39.596Z,61.07
2019-03-28T23:23:13.625Z,61.97
2019-03-28T23:25:47.860Z,61.94
2019-03-28T23:28:21.875Z,51.68
2019-03-28T23:30:55.918Z,48.55
2019-03-28T23:33:30.316Z,51.31
2019-03-28T23:36:05.054Z,53.72
2019-03-28T23:38:39.102Z,55.64
2019-03-28T23:41:13.158Z,57.25
2019-03-28T23:43:47.187Z,58.39
2019-03-28T23:46:21.222Z,59.43
2019-03-28T23:48:55.235Z,60.59
2019-03-28T23:51:29.274Z,61.44
2019-03-28T23:54:03.475Z,62.51
2019-03-28T23:56:37.527Z,61.93
2019-03-28T23:59:13.146Z,51.45
